sensor_id;sensor_type;location;lat;lon;timestamp;pressure;altitude;pressure_sealevel;temperature;humidity
63035;BME280;59750;53.356;-1.458;2023-01-15T00:03:46;98186.31;;;1.97;100.00
63035;BME280;59750;53.356;-1.458;2023-01-15T00:06:12;98190.56;;;1.98;100.00
63035;BME280;59750;53.356;-1.458;2023-01-15T00:08:38;98175.72;;;2.00;100.00
63035;BME280;59750;53.356;-1.458;2023-01-15T00:11:05;98166.41;;;1.97;100.00
63035;BME280;59750;53.356;-1.458;2023-01-15T00:13:31;98168.16;;;1.97;100.00
63035;BME280;59750;53.356;-1.458;2023-01-15T00:16:08;98162.25;;;1.95;100.00
63035;BME280;59750;53.356;-1.458;2023-01-15T00:18:35;98154.81;;;1.90;100.00
63035;BME280;59750;53.356;-1.458;2023-01-15T00:21:04;98135.72;;;1.91;100.00
63035;BME280;59750;53.356;-1.458;2023-01-15T00:23:32;98143.84;;;1.86;100.00
63035;BME280;59750;53.356;-1.458;2023-01-15T00:26:20;98152.56;;;1.85;100.00
63035;BME280;59750;53.356;-1.458;2023-01-15T00:29:05;98141.25;;;1.86;100.00
63035;BME280;59750;53.356;-1.458;2023-01-15T00:31:33;98133.47;;;1.86;100.00
63035;BME280;59750;53.356;-1.458;2023-01-15T00:34:01;98140.41;;;1.86;100.00
63035;BME280;59750;53.356;-1.458;2023-01-15T00:36:28;98144.53;;;1.89;100.00
63035;BME280;59750;53.356;-1.458;2023-01-15T00:38:54;98149.13;;;1.85;100.00
63035;BME280;59750;53.356;-1.458;2023-01-15T00:41:21;98135.34;;;1.84;100.00
63035;BME280;59750;53.356;-1.458;2023-01-15T00:43:47;98141.34;;;1.85;100.00
63035;BME280;59750;53.356;-1.458;2023-01-15T00:46:13;98137.72;;;1.88;100.00
63035;BME280;59750;53.356;-1.458;2023-01-15T00:48:39;98137.22;;;1.82;100.00
63035;BME280;59750;53.356;-1.458;2023-01-15T00:51:06;98148.53;;;1.81;100.00
63035;BME280;59750;53.356;-1.458;2023-01-15T00:53:33;98120.03;;;1.81;100.00
63035;BME280;59750;53.356;-1.458;2023-01-15T00:55:59;98122.13;;;1.76;100.00
63035;BME280;59750;53.356;-1.458;2023-01-15T00:58:24;98139.69;;;1.73;100.00
63035;BME280;59750;53.356;-1.458;2023-01-15T01:00:53;98137.91;;;1.73;100.00
63035;BME280;59750;53.356;-1.458;2023-01-15T01:03:20;98132.94;;;1.70;100.00
63035;BME280;59750;53.356;-1.458;2023-01-15T01:05:47;98138.66;;;1.63;100.00
63035;BME280;59750;53.356;-1.458;2023-01-15T01:08:13;98144.69;;;1.63;100.00
63035;BME280;59750;53.356;-1.458;2023-01-15T01:10:39;98140.44;;;1.62;100.00
63035;BME280;59750;53.356;-1.458;2023-01-15T01:13:05;98154.56;;;1.58;100.00
63035;BME280;59750;53.356;-1.458;2023-01-15T01:15:33;98149.59;;;1.55;100.00
63035;BME280;59750;53.356;-1.458;2023-01-15T01:18:00;98157.38;;;1.55;100.00
63035;BME280;59750;53.356;-1.458;2023-01-15T01:20:26;98144.41;;;1.55;100.00
63035;BME280;59750;53.356;-1.458;2023-01-15T01:22:53;98140.25;;;1.65;99.32
63035;BME280;59750;53.356;-1.458;2023-01-15T01:25:20;98142.09;;;1.63;100.00
63035;BME280;59750;53.356;-1.458;2023-01-15T01:27:46;98126.88;;;1.59;100.00
63035;BME280;59750;53.356;-1.458;2023-01-15T01:30:12;98127.81;;;1.58;100.00
63035;BME280;59750;53.356;-1.458;2023-01-15T01:32:39;98121.59;;;1.60;100.00
63035;BME280;59750;53.356;-1.458;2023-01-15T01:35:09;98146.06;;;1.56;100.00
63035;BME280;59750;53.356;-1.458;2023-01-15T01:37:36;98135.25;;;1.62;100.00
63035;BME280;59750;53.356;-1.458;2023-01-15T01:40:03;98125.81;;;1.61;100.00
63035;BME280;59750;53.356;-1.458;2023-01-15T01:42:29;98126.06;;;1.58;100.00
63035;BME280;59750;53.356;-1.458;2023-01-15T01:45:00;98132.50;;;1.52;100.00
63035;BME280;59750;53.356;-1.458;2023-01-15T01:47:29;98132.50;;;1.52;100.00
63035;BME280;59750;53.356;-1.458;2023-01-15T01:50:00;98123.91;;;1.52;100.00
63035;BME280;59750;53.356;-1.458;2023-01-15T01:52:36;98133.34;;;1.53;100.00
63035;BME280;59750;53.356;-1.458;2023-01-15T01:55:05;98140.88;;;1.56;99.60
63035;BME280;59750;53.356;-1.458;2023-01-15T01:57:33;98144.88;;;1.49;100.00
63035;BME280;59750;53.356;-1.458;2023-01-15T02:00:00;98140.72;;;1.46;100.00
63035;BME280;59750;53.356;-1.458;2023-01-15T02:02:26;98132.84;;;1.48;100.00
63035;BME280;59750;53.356;-1.458;2023-01-15T02:04:53;98131.09;;;1.48;100.00
63035;BME280;59750;53.356;-1.458;2023-01-15T02:07:18;98118.13;;;1.48;100.00
63035;BME280;59750;53.356;-1.458;2023-01-15T02:09:44;98104.56;;;1.45;100.00
63035;BME280;59750;53.356;-1.458;2023-01-15T02:12:18;98108.34;;;1.41;100.00
63035;BME280;59750;53.356;-1.458;2023-01-15T02:14:54;98106.44;;;1.43;100.00
63035;BME280;59750;53.356;-1.458;2023-01-15T02:17:32;98088.31;;;1.43;100.00
63035;BME280;59750;53.356;-1.458;2023-01-15T02:28:23;98100.47;;;1.53;100.00
63035;BME280;59750;53.356;-1.458;2023-01-15T02:31:03;98099.88;;;1.50;100.00
63035;BME280;59750;53.356;-1.458;2023-01-15T02:33:39;98118.97;;;1.49;100.00
63035;BME280;59750;53.356;-1.458;2023-01-15T02:36:08;98117.31;;;1.48;100.00
63035;BME280;59750;53.356;-1.458;2023-01-15T02:38:42;98118.25;;;1.47;100.00
63035;BME280;59750;53.356;-1.458;2023-01-15T02:41:11;98116.31;;;1.38;100.00
63035;BME280;59750;53.356;-1.458;2023-01-15T02:43:47;98121.69;;;1.35;100.00
63035;BME280;59750;53.356;-1.458;2023-01-15T02:46:15;98121.69;;;1.35;100.00
63035;BME280;59750;53.356;-1.458;2023-01-15T02:48:45;98125.94;;;1.36;100.00
63035;BME280;59750;53.356;-1.458;2023-01-15T02:51:15;98132.50;;;1.29;100.00
63035;BME280;59750;53.356;-1.458;2023-01-15T02:53:47;98126.13;;;1.21;100.00
63035;BME280;59750;53.356;-1.458;2023-01-15T02:56:17;98112.22;;;1.22;100.00
63035;BME280;59750;53.356;-1.458;2023-01-15T02:58:47;98102.09;;;1.19;100.00
63035;BME280;59750;53.356;-1.458;2023-01-15T03:01:18;98110.97;;;1.28;100.00
63035;BME280;59750;53.356;-1.458;2023-01-15T03:03:59;98102.63;;;1.36;100.00
63035;BME280;59750;53.356;-1.458;2023-01-15T03:09:17;98096.44;;;1.38;100.00
63035;BME280;59750;53.356;-1.458;2023-01-15T03:11:48;98094.56;;;1.40;100.00
63035;BME280;59750;53.356;-1.458;2023-01-15T03:14:22;98100.09;;;1.47;100.00
63035;BME280;59750;53.356;-1.458;2023-01-15T03:16:56;98088.81;;;1.48;100.00
63035;BME280;59750;53.356;-1.458;2023-01-15T03:19:29;98091.84;;;1.42;100.00
63035;BME280;59750;53.356;-1.458;2023-01-15T03:21:59;98091.03;;;1.41;100.00
63035;BME280;59750;53.356;-1.458;2023-01-15T03:26:59;98094.69;;;1.50;100.00
63035;BME280;59750;53.356;-1.458;2023-01-15T03:29:29;98087.88;;;1.49;100.00
63035;BME280;59750;53.356;-1.458;2023-01-15T03:31:58;98074.56;;;1.53;100.00
63035;BME280;59750;53.356;-1.458;2023-01-15T03:34:28;98078.69;;;1.56;100.00
63035;BME280;59750;53.356;-1.458;2023-01-15T03:36:56;98074.22;;;1.58;100.00
63035;BME280;59750;53.356;-1.458;2023-01-15T03:39:22;98075.06;;;1.59;100.00
63035;BME280;59750;53.356;-1.458;2023-01-15T03:41:58;98080.94;;;1.61;100.00
63035;BME280;59750;53.356;-1.458;2023-01-15T03:47:30;98065.03;;;1.54;100.00
63035;BME280;59750;53.356;-1.458;2023-01-15T03:53:29;98043.13;;;1.47;100.00
63035;BME280;59750;53.356;-1.458;2023-01-15T03:58:44;98033.22;;;1.41;100.00
63035;BME280;59750;53.356;-1.458;2023-01-15T04:01:17;98040.03;;;1.42;100.00
63035;BME280;59750;53.356;-1.458;2023-01-15T04:03:45;98039.81;;;1.45;100.00
63035;BME280;59750;53.356;-1.458;2023-01-15T04:06:13;98031.44;;;1.41;100.00
63035;BME280;59750;53.356;-1.458;2023-01-15T04:08:42;98020.75;;;1.46;100.00
63035;BME280;59750;53.356;-1.458;2023-01-15T04:11:09;98018.84;;;1.48;100.00
63035;BME280;59750;53.356;-1.458;2023-01-15T04:13:35;97995.31;;;1.51;100.00
63035;BME280;59750;53.356;-1.458;2023-01-15T04:16:01;98001.66;;;1.47;100.00
63035;BME280;59750;53.356;-1.458;2023-01-15T04:18:27;97984.22;;;1.49;100.00
63035;BME280;59750;53.356;-1.458;2023-01-15T04:20:53;97984.72;;;1.54;100.00
63035;BME280;59750;53.356;-1.458;2023-01-15T04:23:23;97989.53;;;1.59;100.00
63035;BME280;59750;53.356;-1.458;2023-01-15T04:25:49;97998.63;;;1.64;100.00
63035;BME280;59750;53.356;-1.458;2023-01-15T04:28:14;98004.91;;;1.73;100.00
63035;BME280;59750;53.356;-1.458;2023-01-15T04:30:40;97968.97;;;1.79;100.00
63035;BME280;59750;53.356;-1.458;2023-01-15T04:33:08;97966.63;;;1.76;100.00
63035;BME280;59750;53.356;-1.458;2023-01-15T04:35:34;97956.47;;;1.73;100.00
63035;BME280;59750;53.356;-1.458;2023-01-15T04:38:00;97969.44;;;1.73;100.00
63035;BME280;59750;53.356;-1.458;2023-01-15T04:40:27;97953.06;;;1.73;100.00
63035;BME280;59750;53.356;-1.458;2023-01-15T04:43:12;97958.97;;;1.75;100.00
63035;BME280;59750;53.356;-1.458;2023-01-15T04:45:57;97964.50;;;1.81;100.00
63035;BME280;59750;53.356;-1.458;2023-01-15T04:48:24;97946.22;;;1.83;100.00
63035;BME280;59750;53.356;-1.458;2023-01-15T04:50:50;97941.63;;;1.86;100.00
63035;BME280;59750;53.356;-1.458;2023-01-15T04:53:16;97949.66;;;1.95;100.00
63035;BME280;59750;53.356;-1.458;2023-01-15T04:55:42;97931.97;;;2.00;100.00
63035;BME280;59750;53.356;-1.458;2023-01-15T04:58:08;97930.91;;;2.02;100.00
63035;BME280;59750;53.356;-1.458;2023-01-15T05:00:34;97948.84;;;1.94;100.00
63035;BME280;59750;53.356;-1.458;2023-01-15T05:02:59;97933.50;;;1.91;100.00
63035;BME280;59750;53.356;-1.458;2023-01-15T05:05:25;97929.13;;;1.92;100.00
63035;BME280;59750;53.356;-1.458;2023-01-15T05:07:51;97933.03;;;1.86;100.00
63035;BME280;59750;53.356;-1.458;2023-01-15T05:10:17;97933.72;;;1.88;100.00
63035;BME280;59750;53.356;-1.458;2023-01-15T05:12:43;97937.50;;;1.84;100.00
63035;BME280;59750;53.356;-1.458;2023-01-15T05:15:09;97928.09;;;1.94;100.00
63035;BME280;59750;53.356;-1.458;2023-01-15T05:17:35;97934.56;;;1.89;100.00
63035;BME280;59750;53.356;-1.458;2023-01-15T05:20:02;97953.41;;;1.91;100.00
63035;BME280;59750;53.356;-1.458;2023-01-15T05:22:28;97952.84;;;1.98;100.00
63035;BME280;59750;53.356;-1.458;2023-01-15T05:24:54;97946.94;;;2.07;100.00
63035;BME280;59750;53.356;-1.458;2023-01-15T05:27:20;97960.97;;;2.05;100.00
63035;BME280;59750;53.356;-1.458;2023-01-15T05:29:46;97971.81;;;2.21;100.00
63035;BME280;59750;53.356;-1.458;2023-01-15T05:32:12;97970.84;;;2.33;100.00
63035;BME280;59750;53.356;-1.458;2023-01-15T05:34:38;97975.44;;;2.30;100.00
63035;BME280;59750;53.356;-1.458;2023-01-15T05:37:03;97967.78;;;2.28;100.00
63035;BME280;59750;53.356;-1.458;2023-01-15T05:39:29;97987.56;;;2.40;100.00
63035;BME280;59750;53.356;-1.458;2023-01-15T05:41:55;97983.56;;;2.36;100.00
63035;BME280;59750;53.356;-1.458;2023-01-15T05:44:24;97978.59;;;2.44;100.00
63035;BME280;59750;53.356;-1.458;2023-01-15T05:46:54;97961.38;;;2.55;100.00
63035;BME280;59750;53.356;-1.458;2023-01-15T05:49:22;97977.78;;;2.55;100.00
63035;BME280;59750;53.356;-1.458;2023-01-15T05:51:50;97987.59;;;2.52;100.00
63035;BME280;59750;53.356;-1.458;2023-01-15T05:54:20;97972.59;;;2.55;100.00
63035;BME280;59750;53.356;-1.458;2023-01-15T05:56:46;97982.16;;;2.55;100.00
63035;BME280;59750;53.356;-1.458;2023-01-15T05:59:15;97976.00;;;2.56;100.00
63035;BME280;59750;53.356;-1.458;2023-01-15T06:01:42;97988.94;;;2.67;100.00
63035;BME280;59750;53.356;-1.458;2023-01-15T06:04:10;97995.34;;;2.63;100.00
63035;BME280;59750;53.356;-1.458;2023-01-15T06:06:36;97973.63;;;2.64;100.00
63035;BME280;59750;53.356;-1.458;2023-01-15T06:09:03;97973.53;;;2.54;100.00
63035;BME280;59750;53.356;-1.458;2023-01-15T06:11:29;97989.59;;;2.48;100.00
63035;BME280;59750;53.356;-1.458;2023-01-15T06:13:55;97992.06;;;2.50;100.00
63035;BME280;59750;53.356;-1.458;2023-01-15T06:16:21;97996.56;;;2.47;100.00
63035;BME280;59750;53.356;-1.458;2023-01-15T06:18:48;97985.44;;;2.45;100.00
63035;BME280;59750;53.356;-1.458;2023-01-15T06:21:14;97999.59;;;2.41;100.00
63035;BME280;59750;53.356;-1.458;2023-01-15T06:23:41;97980.97;;;2.36;100.00
63035;BME280;59750;53.356;-1.458;2023-01-15T06:26:13;97978.28;;;2.38;100.00
63035;BME280;59750;53.356;-1.458;2023-01-15T06:28:40;97986.41;;;2.33;100.00
63035;BME280;59750;53.356;-1.458;2023-01-15T06:31:09;97994.19;;;2.33;100.00
63035;BME280;59750;53.356;-1.458;2023-01-15T06:33:35;97992.53;;;2.32;100.00
63035;BME280;59750;53.356;-1.458;2023-01-15T06:36:06;98009.31;;;2.28;100.00
63035;BME280;59750;53.356;-1.458;2023-01-15T06:38:33;97999.16;;;2.25;100.00
63035;BME280;59750;53.356;-1.458;2023-01-15T06:41:01;98000.00;;;2.26;100.00
63035;BME280;59750;53.356;-1.458;2023-01-15T06:43:27;98010.72;;;2.21;100.00
63035;BME280;59750;53.356;-1.458;2023-01-15T06:46:13;98018.63;;;2.20;100.00
63035;BME280;59750;53.356;-1.458;2023-01-15T06:48:58;98036.16;;;2.16;100.00
63035;BME280;59750;53.356;-1.458;2023-01-15T06:51:24;98042.28;;;2.15;100.00
63035;BME280;59750;53.356;-1.458;2023-01-15T06:53:50;98036.16;;;2.16;100.00
63035;BME280;59750;53.356;-1.458;2023-01-15T06:56:16;98035.47;;;2.14;100.00
63035;BME280;59750;53.356;-1.458;2023-01-15T06:58:42;98042.41;;;2.13;100.00
63035;BME280;59750;53.356;-1.458;2023-01-15T07:01:11;98045.13;;;2.12;100.00
63035;BME280;59750;53.356;-1.458;2023-01-15T07:03:38;98059.25;;;2.08;100.00
63035;BME280;59750;53.356;-1.458;2023-01-15T07:06:06;98069.63;;;2.08;100.00
63035;BME280;59750;53.356;-1.458;2023-01-15T07:08:33;98071.41;;;2.07;100.00
63035;BME280;59750;53.356;-1.458;2023-01-15T07:11:08;98066.34;;;2.06;100.00
63035;BME280;59750;53.356;-1.458;2023-01-15T07:13:34;98068.22;;;2.04;100.00
63035;BME280;59750;53.356;-1.458;2023-01-15T07:16:01;98071.75;;;2.03;100.00
63035;BME280;59750;53.356;-1.458;2023-01-15T07:18:29;98070.13;;;2.02;100.00
63035;BME280;59750;53.356;-1.458;2023-01-15T07:20:56;98077.19;;;2.00;100.00
63035;BME280;59750;53.356;-1.458;2023-01-15T07:23:25;98076.34;;;1.99;100.00
63035;BME280;59750;53.356;-1.458;2023-01-15T07:25:52;98074.94;;;1.95;100.00
63035;BME280;59750;53.356;-1.458;2023-01-15T07:28:20;98065.72;;;1.91;100.00
63035;BME280;59750;53.356;-1.458;2023-01-15T07:30:47;98061.59;;;1.89;100.00
63035;BME280;59750;53.356;-1.458;2023-01-15T07:33:13;98062.06;;;1.82;100.00
63035;BME280;59750;53.356;-1.458;2023-01-15T07:35:38;98066.53;;;1.80;100.00
63035;BME280;59750;53.356;-1.458;2023-01-15T07:38:05;98077.13;;;1.77;100.00
63035;BME280;59750;53.356;-1.458;2023-01-15T07:40:31;98077.84;;;1.79;100.00
63035;BME280;59750;53.356;-1.458;2023-01-15T07:42:57;98079.00;;;1.75;100.00
63035;BME280;59750;53.356;-1.458;2023-01-15T07:45:42;98099.97;;;1.72;100.00
63035;BME280;59750;53.356;-1.458;2023-01-15T07:48:28;98083.47;;;1.73;100.00
63035;BME280;59750;53.356;-1.458;2023-01-15T07:51:13;98095.72;;;1.71;100.00
63035;BME280;59750;53.356;-1.458;2023-01-15T07:53:39;98091.47;;;1.70;100.00
63035;BME280;59750;53.356;-1.458;2023-01-15T07:56:05;98088.19;;;1.68;100.00
63035;BME280;59750;53.356;-1.458;2023-01-15T07:58:32;98096.66;;;1.70;100.00
63035;BME280;59750;53.356;-1.458;2023-01-15T08:00:58;98095.00;;;1.69;100.00
63035;BME280;59750;53.356;-1.458;2023-01-15T08:03:23;98112.22;;;1.70;100.00
63035;BME280;59750;53.356;-1.458;2023-01-15T08:05:49;98109.50;;;1.72;100.00
63035;BME280;59750;53.356;-1.458;2023-01-15T08:08:16;98107.84;;;1.71;100.00
63035;BME280;59750;53.356;-1.458;2023-01-15T08:10:43;98118.81;;;1.74;100.00
63035;BME280;59750;53.356;-1.458;2023-01-15T08:13:27;98127.31;;;1.76;100.00
63035;BME280;59750;53.356;-1.458;2023-01-15T08:16:12;98133.22;;;1.78;100.00
63035;BME280;59750;53.356;-1.458;2023-01-15T08:18:38;98144.88;;;1.84;100.00
63035;BME280;59750;53.356;-1.458;2023-01-15T08:21:04;98149.84;;;1.87;100.00
63035;BME280;59750;53.356;-1.458;2023-01-15T08:23:30;98136.75;;;1.89;100.00
63035;BME280;59750;53.356;-1.458;2023-01-15T08:25:59;98143.72;;;1.88;100.00
63035;BME280;59750;53.356;-1.458;2023-01-15T08:28:26;98137.81;;;1.86;100.00
63035;BME280;59750;53.356;-1.458;2023-01-15T08:30:52;98134.06;;;1.90;100.00
63035;BME280;59750;53.356;-1.458;2023-01-15T08:33:18;98127.34;;;1.88;100.00
63035;BME280;59750;53.356;-1.458;2023-01-15T08:35:45;98141.84;;;1.90;100.00
63035;BME280;59750;53.356;-1.458;2023-01-15T08:38:11;98141.72;;;1.92;100.00
63035;BME280;59750;53.356;-1.458;2023-01-15T08:40:38;98161.75;;;1.90;100.00
63035;BME280;59750;53.356;-1.458;2023-01-15T08:43:25;98164.34;;;1.90;100.00
63035;BME280;59750;53.356;-1.458;2023-01-15T08:45:52;98161.63;;;1.91;100.00
63035;BME280;59750;53.356;-1.458;2023-01-15T08:48:20;98175.53;;;1.90;100.00
63035;BME280;59750;53.356;-1.458;2023-01-15T08:50:47;98183.44;;;1.89;100.00
63035;BME280;59750;53.356;-1.458;2023-01-15T08:53:15;98176.38;;;1.91;100.00
63035;BME280;59750;53.356;-1.458;2023-01-15T08:55:41;98176.38;;;1.91;100.00
63035;BME280;59750;53.356;-1.458;2023-01-15T08:58:07;98186.72;;;1.91;100.00
63035;BME280;59750;53.356;-1.458;2023-01-15T09:00:33;98192.66;;;1.93;100.00
63035;BME280;59750;53.356;-1.458;2023-01-15T09:03:00;98210.34;;;1.99;100.00
63035;BME280;59750;53.356;-1.458;2023-01-15T09:05:28;98187.75;;;2.01;100.00
63035;BME280;59750;53.356;-1.458;2023-01-15T09:07:54;98195.28;;;2.04;100.00
63035;BME280;59750;53.356;-1.458;2023-01-15T09:10:21;98193.41;;;2.06;100.00
63035;BME280;59750;53.356;-1.458;2023-01-15T09:12:47;98182.91;;;2.07;100.00
63035;BME280;59750;53.356;-1.458;2023-01-15T09:15:12;98185.16;;;2.12;100.00
63035;BME280;59750;53.356;-1.458;2023-01-15T09:17:39;98200.28;;;2.18;100.00
63035;BME280;59750;53.356;-1.458;2023-01-15T09:20:07;98203.59;;;2.20;100.00
63035;BME280;59750;53.356;-1.458;2023-01-15T09:22:34;98214.47;;;2.25;100.00
63035;BME280;59750;53.356;-1.458;2023-01-15T09:25:01;98217.66;;;2.29;100.00
63035;BME280;59750;53.356;-1.458;2023-01-15T09:27:27;98234.41;;;2.36;100.00
63035;BME280;59750;53.356;-1.458;2023-01-15T09:29:54;98228.94;;;2.52;100.00
63035;BME280;59750;53.356;-1.458;2023-01-15T09:32:20;98242.31;;;2.92;100.00
63035;BME280;59750;53.356;-1.458;2023-01-15T09:34:46;98246.44;;;3.28;100.00
63035;BME280;59750;53.356;-1.458;2023-01-15T09:37:13;98252.56;;;3.49;100.00
63035;BME280;59750;53.356;-1.458;2023-01-15T09:39:41;98257.91;;;3.59;100.00
63035;BME280;59750;53.356;-1.458;2023-01-15T09:50:37;98285.19;;;4.72;100.00
63035;BME280;59750;53.356;-1.458;2023-01-15T09:55:51;98308.72;;;5.12;100.00
63035;BME280;59750;53.356;-1.458;2023-01-15T09:58:32;98301.56;;;5.04;100.00
63035;BME280;59750;53.356;-1.458;2023-01-15T10:01:00;98312.97;;;4.92;100.00
63035;BME280;59750;53.356;-1.458;2023-01-15T10:03:35;98307.53;;;4.95;100.00
63035;BME280;59750;53.356;-1.458;2023-01-15T10:06:26;98314.44;;;4.64;100.00
63035;BME280;59750;53.356;-1.458;2023-01-15T10:09:13;98314.50;;;4.53;100.00
63035;BME280;59750;53.356;-1.458;2023-01-15T10:11:44;98318.94;;;4.62;100.00
63035;BME280;59750;53.356;-1.458;2023-01-15T10:17:27;98323.19;;;3.99;100.00
63035;BME280;59750;53.356;-1.458;2023-01-15T10:19:54;98330.03;;;4.00;100.00
63035;BME280;59750;53.356;-1.458;2023-01-15T10:22:27;98334.44;;;4.63;100.00
63035;BME280;59750;53.356;-1.458;2023-01-15T10:24:57;98343.03;;;5.17;100.00
63035;BME280;59750;53.356;-1.458;2023-01-15T10:27:27;98350.00;;;5.37;100.00
63035;BME280;59750;53.356;-1.458;2023-01-15T10:32:46;98358.75;;;5.06;100.00
63035;BME280;59750;53.356;-1.458;2023-01-15T10:46:21;98369.94;;;4.64;100.00
63035;BME280;59750;53.356;-1.458;2023-01-15T10:48:55;98368.78;;;4.89;100.00
63035;BME280;59750;53.356;-1.458;2023-01-15T10:51:23;98379.88;;;4.91;100.00
63035;BME280;59750;53.356;-1.458;2023-01-15T10:54:00;98387.84;;;4.90;100.00
63035;BME280;59750;53.356;-1.458;2023-01-15T11:01:58;98387.84;;;4.58;100.00
63035;BME280;59750;53.356;-1.458;2023-01-15T11:04:28;98393.63;;;4.61;100.00
63035;BME280;59750;53.356;-1.458;2023-01-15T11:06:56;98389.78;;;4.45;100.00
63035;BME280;59750;53.356;-1.458;2023-01-15T11:09:24;98392.97;;;4.37;100.00
63035;BME280;59750;53.356;-1.458;2023-01-15T11:12:22;98394.34;;;4.20;100.00
63035;BME280;59750;53.356;-1.458;2023-01-15T11:14:49;98413.75;;;4.16;100.00
63035;BME280;59750;53.356;-1.458;2023-01-15T11:20:33;98404.03;;;4.07;100.00
63035;BME280;59750;53.356;-1.458;2023-01-15T11:23:20;98392.69;;;4.08;100.00
63035;BME280;59750;53.356;-1.458;2023-01-15T11:25:50;98401.94;;;4.12;100.00
63035;BME280;59750;53.356;-1.458;2023-01-15T11:28:17;98398.25;;;4.15;100.00
63035;BME280;59750;53.356;-1.458;2023-01-15T11:30:52;98389.72;;;4.24;100.00
63035;BME280;59750;53.356;-1.458;2023-01-15T11:33:25;98386.03;;;4.26;100.00
63035;BME280;59750;53.356;-1.458;2023-01-15T11:35:56;98390.63;;;4.34;100.00
63035;BME280;59750;53.356;-1.458;2023-01-15T11:38:27;98391.41;;;4.57;100.00
63035;BME280;59750;53.356;-1.458;2023-01-15T11:40:56;98405.81;;;4.72;100.00
63035;BME280;59750;53.356;-1.458;2023-01-15T11:43:26;98400.84;;;4.90;100.00
63035;BME280;59750;53.356;-1.458;2023-01-15T11:46:30;98395.81;;;5.30;100.00
63035;BME280;59750;53.356;-1.458;2023-01-15T11:49:20;98410.25;;;5.34;100.00
63035;BME280;59750;53.356;-1.458;2023-01-15T11:52:09;98406.41;;;5.38;100.00
63035;BME280;59750;53.356;-1.458;2023-01-15T11:54:38;98402.81;;;5.30;100.00
63035;BME280;59750;53.356;-1.458;2023-01-15T11:57:07;98392.63;;;5.06;100.00
63035;BME280;59750;53.356;-1.458;2023-01-15T11:59:33;98396.00;;;4.96;100.00
63035;BME280;59750;53.356;-1.458;2023-01-15T12:02:10;98400.38;;;5.17;100.00
63035;BME280;59750;53.356;-1.458;2023-01-15T12:04:48;98392.25;;;5.31;100.00
63035;BME280;59750;53.356;-1.458;2023-01-15T12:07:18;98394.59;;;5.85;100.00
63035;BME280;59750;53.356;-1.458;2023-01-15T12:10:13;98391.00;;;6.07;100.00
63035;BME280;59750;53.356;-1.458;2023-01-15T12:13:05;98391.50;;;6.01;100.00
63035;BME280;59750;53.356;-1.458;2023-01-15T12:15:52;98394.16;;;5.80;100.00
63035;BME280;59750;53.356;-1.458;2023-01-15T12:21:24;98389.50;;;5.84;100.00
63035;BME280;59750;53.356;-1.458;2023-01-15T12:24:16;98388.88;;;5.71;100.00
63035;BME280;59750;53.356;-1.458;2023-01-15T12:26:59;98396.28;;;5.45;100.00
63035;BME280;59750;53.356;-1.458;2023-01-15T12:29:50;98406.25;;;5.30;100.00
63035;BME280;59750;53.356;-1.458;2023-01-15T12:32:26;98405.09;;;5.23;100.00
63035;BME280;59750;53.356;-1.458;2023-01-15T12:35:06;98413.22;;;5.09;100.00
63035;BME280;59750;53.356;-1.458;2023-01-15T12:37:44;98399.88;;;5.02;100.00
63035;BME280;59750;53.356;-1.458;2023-01-15T12:42:43;98386.06;;;4.90;100.00
63035;BME280;59750;53.356;-1.458;2023-01-15T12:45:35;98397.91;;;4.94;100.00
63035;BME280;59750;53.356;-1.458;2023-01-15T12:48:14;98399.06;;;4.90;100.00
63035;BME280;59750;53.356;-1.458;2023-01-15T12:55:52;98414.22;;;4.96;100.00
63035;BME280;59750;53.356;-1.458;2023-01-15T13:01:16;98409.84;;;4.97;100.00
63035;BME280;59750;53.356;-1.458;2023-01-15T13:03:51;98417.66;;;4.97;100.00
63035;BME280;59750;53.356;-1.458;2023-01-15T13:06:21;98413.72;;;5.03;100.00
63035;BME280;59750;53.356;-1.458;2023-01-15T13:11:42;98411.75;;;5.16;100.00
63035;BME280;59750;53.356;-1.458;2023-01-15T13:14:15;98411.06;;;5.14;100.00
63035;BME280;59750;53.356;-1.458;2023-01-15T13:21:49;98417.28;;;5.02;100.00
63035;BME280;59750;53.356;-1.458;2023-01-15T13:32:25;98421.81;;;4.88;100.00
63035;BME280;59750;53.356;-1.458;2023-01-15T13:38:02;98427.13;;;4.98;100.00
63035;BME280;59750;53.356;-1.458;2023-01-15T13:40:41;98427.72;;;5.02;100.00
63035;BME280;59750;53.356;-1.458;2023-01-15T13:43:37;98430.56;;;4.99;100.00
63035;BME280;59750;53.356;-1.458;2023-01-15T13:46:08;98436.97;;;4.94;100.00
63035;BME280;59750;53.356;-1.458;2023-01-15T13:48:42;98438.63;;;4.95;100.00
63035;BME280;59750;53.356;-1.458;2023-01-15T13:51:29;98434.81;;;5.00;100.00
63035;BME280;59750;53.356;-1.458;2023-01-15T13:53:58;98434.06;;;5.09;100.00
63035;BME280;59750;53.356;-1.458;2023-01-15T13:56:31;98438.28;;;5.21;100.00
63035;BME280;59750;53.356;-1.458;2023-01-15T13:59:00;98436.56;;;5.31;100.00
63035;BME280;59750;53.356;-1.458;2023-01-15T14:06:52;98444.34;;;5.21;100.00
63035;BME280;59750;53.356;-1.458;2023-01-15T14:14:39;98448.09;;;4.96;100.00
63035;BME280;59750;53.356;-1.458;2023-01-15T14:17:20;98443.84;;;4.95;100.00
63035;BME280;59750;53.356;-1.458;2023-01-15T14:34:28;98432.72;;;4.93;100.00
63035;BME280;59750;53.356;-1.458;2023-01-15T14:36:59;98433.06;;;4.89;100.00
63035;BME280;59750;53.356;-1.458;2023-01-15T14:42:05;98430.28;;;4.81;100.00
63035;BME280;59750;53.356;-1.458;2023-01-15T14:45:01;98429.13;;;4.74;100.00
63035;BME280;59750;53.356;-1.458;2023-01-15T14:47:35;98427.13;;;4.66;100.00
63035;BME280;59750;53.356;-1.458;2023-01-15T14:52:46;98431.66;;;4.53;100.00
63035;BME280;59750;53.356;-1.458;2023-01-15T14:55:16;98433.22;;;4.44;100.00
63035;BME280;59750;53.356;-1.458;2023-01-15T14:58:03;98437.84;;;4.41;100.00
63035;BME280;59750;53.356;-1.458;2023-01-15T15:00:36;98439.97;;;4.35;100.00
63035;BME280;59750;53.356;-1.458;2023-01-15T15:03:32;98447.78;;;4.35;100.00
63035;BME280;59750;53.356;-1.458;2023-01-15T15:06:00;98437.47;;;4.34;100.00
63035;BME280;59750;53.356;-1.458;2023-01-15T15:08:30;98439.75;;;4.39;100.00
63035;BME280;59750;53.356;-1.458;2023-01-15T15:10:59;98439.75;;;4.39;100.00
63035;BME280;59750;53.356;-1.458;2023-01-15T15:13:46;98436.19;;;4.40;100.00